createdAt,value
2023-01-09T00:02:04.413Z,0.25
2023-01-09T00:04:31.169Z,0.40
2023-01-09T00:06:58.462Z,0.28
2023-01-09T00:09:25.172Z,0.20
2023-01-09T00:11:52.002Z,0.43
2023-01-09T00:14:18.985Z,0.30
2023-01-09T00:16:45.790Z,0.47
2023-01-09T00:19:12.534Z,0.40
2023-01-09T00:21:39.273Z,0.40
2023-01-09T00:24:06.339Z,0.50
2023-01-09T00:26:33.039Z,0.38
2023-01-09T00:29:00.276Z,0.50
2023-01-09T00:31:27.070Z,0.30
2023-01-09T00:34:00.311Z,0.45
2023-01-09T00:36:27.213Z,0.30
2023-01-09T00:38:53.907Z,0.20
2023-01-09T00:41:30.138Z,0.22
2023-01-09T00:43:59.294Z,0.30
2023-01-09T00:46:29.588Z,0.22
2023-01-09T00:48:56.627Z,0.50
2023-01-09T00:51:24.163Z,0.40
2023-01-09T00:53:50.978Z,0.20
2023-01-09T00:56:18.656Z,0.28
2023-01-09T00:58:45.362Z,0.25
2023-01-09T01:01:12.327Z,0.40
2023-01-09T01:03:39.356Z,0.43
2023-01-09T01:06:24.611Z,0.32
2023-01-09T01:08:51.393Z,0.30
2023-01-09T01:11:18.136Z,0.50
2023-01-09T01:13:44.830Z,0.32
2023-01-09T01:16:12.268Z,0.30
2023-01-09T01:18:39.260Z,0.20
2023-01-09T01:21:07.879Z,0.40
2023-01-09T01:23:34.760Z,0.50
2023-01-09T01:26:09.060Z,0.50
2023-01-09T01:28:35.843Z,0.40
2023-01-09T01:31:02.942Z,0.22
2023-01-09T01:33:29.991Z,0.30
2023-01-09T01:36:17.450Z,0.30
2023-01-09T01:38:44.281Z,0.30
2023-01-09T01:41:10.996Z,0.45
2023-01-09T01:43:54.384Z,0.40
2023-01-09T01:46:21.233Z,0.50
2023-01-09T01:48:49.462Z,0.32
2023-01-09T01:51:16.996Z,0.20
2023-01-09T01:53:46.131Z,0.30
2023-01-09T01:56:22.655Z,0.40
2023-01-09T01:58:58.750Z,0.40
2023-01-09T02:01:25.564Z,0.60
2023-01-09T02:03:53.211Z,0.40
2023-01-09T02:06:20.026Z,0.35
2023-01-09T02:08:46.857Z,0.30
2023-01-09T02:11:14.464Z,0.40
2023-01-09T02:13:41.225Z,0.30
2023-01-09T02:16:30.701Z,0.40
2023-01-09T02:19:14.707Z,0.50
2023-01-09T02:22:10.946Z,0.30
2023-01-09T02:24:53.971Z,0.40
2023-01-09T02:27:51.329Z,0.35
2023-01-09T02:30:40.488Z,0.47
2023-01-09T02:33:39.996Z,0.50
2023-01-09T02:36:31.175Z,0.30
2023-01-09T02:39:17.038Z,0.45
2023-01-09T02:41:58.552Z,0.40
2023-01-09T02:44:29.773Z,0.30
2023-01-09T02:47:06.956Z,0.40
2023-01-09T02:49:38.344Z,0.30
2023-01-09T02:52:23.747Z,0.38
2023-01-09T02:55:05.550Z,0.40
2023-01-09T02:57:41.564Z,0.50
2023-01-09T03:00:17.270Z,0.30
2023-01-09T03:02:52.616Z,0.47
2023-01-09T03:05:26.746Z,0.40
2023-01-09T03:08:03.225Z,0.57
2023-01-09T03:11:07.935Z,0.30
2023-01-09T03:13:54.159Z,0.30
2023-01-09T03:16:32.446Z,0.40
2023-01-09T03:18:59.207Z,0.65
2023-01-09T03:21:26.033Z,0.30
2023-01-09T03:23:57.528Z,0.35
2023-01-09T03:26:24.435Z,0.50
2023-01-09T03:28:51.222Z,0.32
2023-01-09T03:31:18.005Z,0.50
2023-01-09T03:33:44.788Z,0.38
2023-01-09T03:36:11.968Z,0.40
2023-01-09T03:38:38.731Z,0.50
2023-01-09T03:41:05.686Z,0.13
2023-01-09T03:43:32.450Z,0.40
2023-01-09T03:45:59.343Z,0.32
2023-01-09T03:48:26.144Z,0.40
2023-01-09T03:50:53.250Z,0.50
2023-01-09T03:53:20.295Z,0.60
2023-01-09T03:55:47.651Z,0.43
2023-01-09T03:58:15.037Z,0.40
2023-01-09T04:00:42.411Z,0.50
2023-01-09T04:03:09.325Z,0.30
2023-01-09T04:05:36.054Z,0.50
2023-01-09T04:08:02.739Z,0.45
2023-01-09T04:10:29.418Z,0.50
2023-01-09T04:12:56.083Z,0.50
2023-01-09T04:15:23.178Z,0.50
2023-01-09T04:17:49.914Z,0.85
2023-01-09T04:20:16.913Z,0.50
2023-01-09T04:22:43.745Z,0.43
2023-01-09T04:25:10.425Z,0.50
2023-01-09T04:27:37.204Z,0.35
2023-01-09T04:30:04.503Z,0.47
2023-01-09T04:32:31.263Z,0.45
2023-01-09T04:34:58.040Z,0.40
2023-01-09T04:37:24.738Z,0.50
2023-01-09T04:39:53.294Z,0.65
2023-01-09T04:42:19.971Z,0.50
2023-01-09T04:44:46.632Z,0.43
2023-01-09T04:47:14.958Z,0.50
2023-01-09T04:49:41.667Z,0.60
2023-01-09T04:52:08.351Z,0.63
2023-01-09T04:54:35.102Z,0.50
2023-01-09T04:57:01.846Z,0.63
2023-01-09T04:59:28.536Z,0.50
2023-01-09T05:01:56.321Z,0.60
2023-01-09T05:04:23.114Z,0.60
2023-01-09T05:06:49.917Z,0.50
2023-01-09T05:09:16.579Z,0.60
2023-01-09T05:11:43.247Z,0.40
2023-01-09T05:14:10.084Z,0.45
2023-01-09T05:16:36.771Z,0.50
2023-01-09T05:19:03.608Z,0.55
2023-01-09T05:21:30.368Z,0.30
2023-01-09T05:23:57.126Z,0.63
2023-01-09T05:26:24.120Z,0.40
2023-01-09T05:28:51.708Z,0.50
2023-01-09T05:31:18.943Z,0.70
2023-01-09T05:33:46.071Z,0.60
2023-01-09T05:36:12.767Z,0.50
2023-01-09T05:38:39.540Z,0.60
2023-01-09T05:41:06.369Z,0.57
2023-01-09T05:43:33.336Z,0.73
2023-01-09T05:46:00.033Z,0.70
2023-01-09T05:48:26.743Z,0.70
2023-01-09T05:50:53.447Z,0.73
2023-01-09T05:53:20.132Z,0.57
2023-01-09T05:55:47.178Z,0.47
2023-01-09T05:58:13.849Z,0.50
2023-01-09T06:00:40.503Z,0.60
2023-01-09T06:03:07.185Z,0.73
2023-01-09T06:05:33.930Z,0.70
2023-01-09T06:08:00.669Z,0.50
2023-01-09T06:10:27.421Z,0.70
2023-01-09T06:12:54.690Z,0.40
2023-01-09T06:15:21.442Z,0.60
2023-01-09T06:17:48.464Z,0.57
2023-01-09T06:20:15.150Z,0.57
2023-01-09T06:22:41.866Z,0.55
2023-01-09T06:25:09.085Z,0.55
2023-01-09T06:27:35.764Z,0.47
2023-01-09T06:30:02.457Z,0.40
2023-01-09T06:32:29.218Z,0.70
2023-01-09T06:34:55.875Z,0.82
2023-01-09T06:37:22.552Z,0.77
2023-01-09T06:39:49.593Z,0.70
2023-01-09T06:42:16.457Z,0.50
2023-01-09T06:44:43.316Z,0.60
2023-01-09T06:47:10.102Z,0.60
2023-01-09T06:49:36.840Z,0.60
2023-01-09T06:52:05.729Z,0.70
2023-01-09T06:54:32.533Z,0.73
2023-01-09T06:56:59.271Z,0.40
2023-01-09T06:59:25.964Z,0.90
2023-01-09T07:01:52.753Z,0.75
2023-01-09T07:04:22.174Z,0.63
2023-01-09T07:06:49.339Z,0.68
2023-01-09T07:09:16.068Z,0.60
2023-01-09T07:11:42.844Z,0.50
2023-01-09T07:14:09.558Z,0.70
2023-01-09T07:16:36.391Z,0.32
2023-01-09T07:19:03.077Z,0.60
2023-01-09T07:21:32.602Z,0.60
2023-01-09T07:23:59.453Z,0.60
2023-01-09T07:26:26.181Z,0.65
2023-01-09T07:28:54.680Z,0.70
2023-01-09T07:31:21.950Z,0.70
2023-01-09T07:33:49.454Z,0.60
2023-01-09T07:36:16.246Z,0.50
2023-01-09T07:38:42.952Z,0.50
2023-01-09T07:41:09.740Z,0.60
2023-01-09T07:43:37.704Z,0.50
2023-01-09T07:46:04.749Z,0.63
2023-01-09T07:48:31.456Z,0.40
2023-01-09T07:50:58.290Z,0.70
2023-01-09T07:53:25.201Z,0.47
2023-01-09T07:55:53.204Z,0.47
2023-01-09T07:58:19.873Z,0.75
2023-01-09T08:00:46.603Z,0.38
2023-01-09T08:03:13.331Z,0.60
2023-01-09T08:05:40.012Z,0.60
2023-01-09T08:08:07.172Z,0.40
2023-01-09T08:10:33.847Z,0.55
2023-01-09T08:13:00.655Z,0.57
2023-01-09T08:15:27.400Z,0.40
2023-01-09T08:17:55.060Z,0.60
2023-01-09T08:20:22.082Z,0.70
2023-01-09T08:22:54.380Z,0.80
2023-01-09T08:25:21.481Z,0.80
2023-01-09T08:27:48.874Z,0.60
2023-01-09T08:30:16.870Z,0.70
2023-01-09T08:32:43.697Z,0.70
2023-01-09T08:35:10.535Z,0.50
2023-01-09T08:37:37.331Z,0.50
2023-01-09T08:40:04.410Z,0.68
2023-01-09T08:42:49.695Z,0.75
2023-01-09T08:45:34.961Z,0.68
2023-01-09T08:48:01.730Z,0.65
2023-01-09T08:50:28.404Z,0.52
2023-01-09T08:52:55.090Z,0.47
2023-01-09T08:55:22.346Z,0.60
2023-01-09T08:57:54.316Z,0.57
2023-01-09T09:00:24.986Z,0.52
2023-01-09T09:02:57.262Z,0.80
2023-01-09T09:05:25.328Z,0.40
2023-01-09T09:07:53.943Z,0.60
2023-01-09T09:10:20.980Z,0.73
2023-01-09T09:12:52.575Z,0.73
2023-01-09T09:15:26.682Z,0.60
2023-01-09T09:17:55.890Z,0.40
2023-01-09T09:20:28.249Z,0.60
2023-01-09T09:22:55.377Z,0.40
2023-01-09T09:25:24.201Z,0.68
2023-01-09T09:27:51.541Z,0.80
2023-01-09T09:30:19.281Z,0.85
2023-01-09T09:32:46.845Z,0.70
2023-01-09T09:35:14.069Z,0.75
2023-01-09T09:37:42.106Z,0.90
2023-01-09T09:40:18.746Z,1.15
2023-01-09T09:43:42.603Z,1.00
2023-01-09T09:46:13.237Z,1.00
2023-01-09T09:48:46.021Z,0.95
2023-01-09T09:51:26.882Z,0.90
2023-01-09T09:53:59.926Z,1.38
2023-01-09T09:56:27.344Z,0.85
2023-01-09T09:58:57.139Z,1.52
2023-01-09T10:01:28.760Z,1.10
2023-01-09T10:04:00.223Z,1.27
2023-01-09T10:06:33.055Z,1.02
2023-01-09T10:09:02.978Z,1.05
2023-01-09T10:11:56.890Z,1.25
2023-01-09T10:14:25.547Z,1.20
2023-01-09T10:17:19.523Z,0.85
2023-01-09T10:20:24.635Z,1.13
2023-01-09T10:23:13.507Z,1.00
2023-01-09T10:25:44.961Z,1.00
2023-01-09T10:28:11.731Z,1.00
2023-01-09T10:30:44.102Z,1.20
2023-01-09T10:33:45.751Z,0.93
2023-01-09T10:36:34.642Z,1.30
2023-01-09T10:39:04.331Z,1.30
2023-01-09T10:41:30.987Z,0.95
2023-01-09T10:44:03.859Z,1.00
2023-01-09T10:46:42.040Z,1.55
2023-01-09T10:49:13.047Z,1.10
2023-01-09T10:52:14.826Z,1.40
2023-01-09T10:54:53.624Z,1.20
2023-01-09T10:57:42.799Z,0.88
2023-01-09T11:00:24.177Z,1.38
2023-01-09T11:02:52.078Z,1.20
2023-01-09T11:05:31.162Z,1.52
2023-01-09T11:08:04.968Z,1.20
2023-01-09T11:10:51.537Z,1.13
2023-01-09T11:13:26.605Z,0.95
2023-01-09T11:16:09.220Z,1.10
2023-01-09T11:18:39.041Z,1.58
2023-01-09T11:21:32.039Z,1.10
2023-01-09T11:24:21.282Z,1.02
2023-01-09T11:26:48.638Z,1.17
2023-01-09T11:29:25.221Z,1.27
2023-01-09T11:31:54.682Z,1.20
2023-01-09T11:34:24.041Z,1.38
2023-01-09T11:36:51.949Z,1.90
2023-01-09T11:39:26.287Z,1.10
2023-01-09T11:41:57.279Z,1.20
2023-01-09T11:44:25.832Z,1.30
2023-01-09T11:46:54.089Z,1.58
2023-01-09T11:49:28.923Z,2.38
2023-01-09T11:52:19.627Z,2.38
2023-01-09T11:55:03.111Z,1.70
2023-01-09T11:57:30.301Z,1.55
2023-01-09T11:59:59.560Z,1.98
2023-01-09T12:03:17.747Z,1.70
2023-01-09T12:05:50.600Z,1.90
2023-01-09T12:08:56.246Z,1.67
2023-01-09T12:11:33.263Z,1.27
2023-01-09T12:13:59.918Z,2.30
2023-01-09T12:16:39.942Z,1.30
2023-01-09T12:19:27.182Z,1.55
2023-01-09T12:22:06.608Z,1.48
2023-01-09T12:24:58.117Z,2.47
2023-01-09T12:27:26.672Z,1.73
2023-01-09T12:30:02.798Z,2.15
2023-01-09T12:32:48.372Z,1.95
2023-01-09T12:35:37.605Z,1.42
2023-01-09T12:38:23.889Z,1.45
2023-01-09T12:41:09.362Z,1.42
2023-01-09T12:44:03.798Z,2.00
2023-01-09T12:46:38.552Z,1.52
2023-01-09T12:49:14.136Z,1.83
2023-01-09T12:52:17.393Z,1.70
2023-01-09T12:54:55.754Z,1.70
2023-01-09T12:57:38.959Z,1.83
2023-01-09T13:00:15.073Z,1.88
2023-01-09T13:02:44.605Z,1.90
2023-01-09T13:05:20.249Z,1.55
2023-01-09T13:07:49.614Z,1.58
2023-01-09T13:10:27.079Z,1.80
2023-01-09T13:12:54.685Z,1.30
2023-01-09T13:15:43.022Z,1.95
2023-01-09T13:18:14.054Z,1.52
2023-01-09T13:20:52.946Z,1.73
2023-01-09T13:23:23.153Z,1.60
2023-01-09T13:25:54.830Z,1.48
2023-01-09T13:28:26.490Z,1.70
2023-01-09T13:31:15.996Z,1.60
2023-01-09T13:33:49.743Z,1.48
2023-01-09T13:36:28.226Z,1.42
2023-01-09T13:38:58.082Z,1.33
2023-01-09T13:41:45.606Z,1.38
2023-01-09T13:44:18.543Z,1.65
2023-01-09T13:46:46.403Z,1.45
2023-01-09T13:49:43.931Z,1.45
2023-01-09T13:52:28.631Z,1.60
2023-01-09T13:54:55.341Z,1.35
2023-01-09T13:57:25.376Z,1.73
2023-01-09T13:59:52.156Z,1.65
2023-01-09T14:02:34.888Z,1.92
2023-01-09T14:05:11.369Z,1.42
2023-01-09T14:07:49.211Z,1.45
2023-01-09T14:10:28.258Z,1.35
2023-01-09T14:12:55.974Z,2.35
2023-01-09T14:15:31.923Z,1.98
2023-01-09T14:18:15.734Z,2.55
2023-01-09T14:20:48.496Z,2.95
2023-01-09T14:23:50.349Z,3.63
2023-01-09T14:26:23.677Z,3.08
2023-01-09T14:28:50.355Z,2.65
2023-01-09T14:31:34.858Z,2.75
2023-01-09T14:34:35.730Z,2.88
2023-01-09T14:37:02.996Z,2.58
2023-01-09T14:39:31.470Z,2.28
2023-01-09T14:42:06.711Z,2.00
2023-01-09T14:44:51.286Z,2.17
2023-01-09T14:47:39.867Z,2.45
2023-01-09T14:50:08.509Z,2.17
2023-01-09T14:52:48.059Z,2.60
2023-01-09T14:55:20.471Z,2.33
2023-01-09T14:57:52.138Z,2.40
2023-01-09T15:00:19.547Z,2.00
2023-01-09T15:02:46.217Z,2.13
2023-01-09T15:05:16.029Z,2.22
2023-01-09T15:08:00.080Z,1.90
2023-01-09T15:10:31.514Z,2.30
2023-01-09T15:13:00.653Z,2.17
2023-01-09T15:15:29.002Z,2.55
2023-01-09T15:18:06.799Z,2.10
2023-01-09T15:20:34.288Z,2.30
2023-01-09T15:23:01.315Z,1.83
2023-01-09T15:25:44.911Z,1.95
2023-01-09T15:28:32.205Z,3.20
2023-01-09T15:31:07.331Z,2.13
2023-01-09T15:33:34.113Z,2.90
2023-01-09T15:36:02.409Z,2.70
2023-01-09T15:38:31.265Z,2.35
2023-01-09T15:41:01.303Z,2.10
2023-01-09T15:43:30.294Z,3.17
2023-01-09T15:45:57.655Z,2.55
2023-01-09T15:48:35.179Z,2.70
2023-01-09T15:51:18.301Z,1.75
2023-01-09T15:53:46.937Z,2.70
2023-01-09T15:56:33.366Z,2.30
2023-01-09T15:59:00.769Z,2.20
2023-01-09T16:01:39.839Z,2.20
2023-01-09T16:04:13.072Z,2.42
2023-01-09T16:06:45.563Z,1.95
2023-01-09T16:09:16.867Z,1.40
2023-01-09T16:11:46.848Z,2.10
2023-01-09T16:14:14.552Z,1.80
2023-01-09T16:16:41.504Z,1.98
2023-01-09T16:19:28.513Z,2.00
2023-01-09T16:21:59.474Z,2.30
2023-01-09T16:24:27.996Z,1.45
2023-01-09T16:27:13.638Z,1.63
2023-01-09T16:29:45.679Z,1.60
2023-01-09T16:32:21.384Z,1.65
2023-01-09T16:34:57.274Z,1.75
2023-01-09T16:37:24.632Z,1.70
2023-01-09T16:40:21.985Z,1.73
2023-01-09T16:43:03.446Z,1.50
2023-01-09T16:45:37.193Z,1.70
2023-01-09T16:48:19.118Z,1.60
2023-01-09T16:50:46.195Z,1.50
2023-01-09T16:53:17.376Z,1.77
2023-01-09T16:55:45.054Z,1.52
2023-01-09T16:58:21.250Z,1.73
2023-01-09T17:00:48.173Z,1.63
2023-01-09T17:03:15.193Z,1.55
2023-01-09T17:05:42.011Z,1.60
2023-01-09T17:08:22.755Z,1.48
2023-01-09T17:10:53.288Z,1.20
2023-01-09T17:13:20.019Z,1.48
2023-01-09T17:15:46.951Z,1.33
2023-01-09T17:18:18.305Z,1.25
2023-01-09T17:20:46.715Z,1.40
2023-01-09T17:23:13.778Z,1.30
2023-01-09T17:25:59.365Z,1.90
2023-01-09T17:28:36.053Z,1.60
2023-01-09T17:31:09.237Z,1.30
2023-01-09T17:33:36.114Z,1.40
2023-01-09T17:36:03.311Z,1.23
2023-01-09T17:38:30.082Z,1.25
2023-01-09T17:40:56.749Z,1.58
2023-01-09T17:43:23.584Z,1.30
2023-01-09T17:45:50.623Z,1.60
2023-01-09T17:48:19.008Z,2.00
2023-01-09T17:50:46.183Z,2.13
2023-01-09T17:53:13.214Z,2.83
2023-01-09T17:55:40.937Z,2.17
2023-01-09T17:58:10.031Z,2.92
2023-01-09T18:00:37.457Z,2.45
2023-01-09T18:03:05.500Z,2.15
2023-01-09T18:05:34.160Z,1.80
2023-01-09T18:08:01.239Z,2.00
2023-01-09T18:10:28.548Z,2.08
2023-01-09T18:12:55.729Z,1.67
2023-01-09T18:15:24.375Z,1.98
2023-01-09T18:17:51.870Z,1.65
2023-01-09T18:20:18.903Z,2.22
2023-01-09T18:22:45.638Z,1.60
2023-01-09T18:25:12.369Z,1.65
2023-01-09T18:27:39.119Z,1.40
2023-01-09T18:30:07.717Z,1.92
2023-01-09T18:32:35.148Z,1.70
2023-01-09T18:35:02.154Z,2.28
2023-01-09T18:37:28.894Z,1.73
2023-01-09T18:39:55.679Z,1.63
2023-01-09T18:42:22.447Z,1.85
2023-01-09T18:44:59.069Z,1.60
2023-01-09T18:47:25.955Z,1.63
2023-01-09T18:49:52.853Z,1.58
2023-01-09T18:52:19.511Z,1.73
2023-01-09T18:54:46.248Z,1.38
2023-01-09T18:57:12.905Z,1.63
2023-01-09T18:59:39.557Z,1.45
2023-01-09T19:02:08.121Z,1.70
2023-01-09T19:04:34.794Z,1.85
2023-01-09T19:07:01.504Z,1.35
2023-01-09T19:09:28.223Z,1.50
2023-01-09T19:11:54.879Z,1.92
2023-01-09T19:14:21.656Z,1.58
2023-01-09T19:16:48.614Z,2.00
2023-01-09T19:19:15.412Z,1.65
2023-01-09T19:21:44.085Z,1.55
2023-01-09T19:24:10.974Z,1.70
2023-01-09T19:26:39.284Z,1.52
2023-01-09T19:29:05.954Z,1.70
2023-01-09T19:31:34.085Z,2.05
2023-01-09T19:34:00.988Z,1.73
2023-01-09T19:36:27.974Z,1.55
2023-01-09T19:39:01.580Z,1.63
2023-01-09T19:41:28.532Z,2.03
2023-01-09T19:43:55.199Z,1.73
2023-01-09T19:46:23.081Z,2.00
2023-01-09T19:48:50.259Z,1.50
2023-01-09T19:51:20.705Z,1.40
2023-01-09T19:53:55.419Z,1.33
2023-01-09T19:56:23.357Z,1.60
2023-01-09T19:58:51.948Z,1.50
2023-01-09T20:01:20.576Z,1.27
2023-01-09T20:03:47.965Z,1.55
2023-01-09T20:06:18.780Z,1.30
2023-01-09T20:08:48.837Z,1.50
2023-01-09T20:11:15.716Z,1.30
2023-01-09T20:13:42.634Z,1.25
2023-01-09T20:16:14.410Z,1.58
2023-01-09T20:18:41.186Z,1.08
2023-01-09T20:21:09.612Z,1.73
2023-01-09T20:23:38.456Z,1.33
2023-01-09T20:26:05.319Z,1.50
2023-01-09T20:28:32.063Z,1.10
2023-01-09T20:30:59.338Z,1.20
2023-01-09T20:33:26.083Z,1.17
2023-01-09T20:35:52.760Z,2.10
2023-01-09T20:38:19.479Z,1.30
2023-01-09T20:40:46.246Z,1.30
2023-01-09T20:43:13.049Z,1.35
2023-01-09T20:45:40.692Z,1.92
2023-01-09T20:48:08.849Z,1.45
2023-01-09T20:50:35.558Z,1.60
2023-01-09T20:53:03.299Z,1.13
2023-01-09T20:55:30.167Z,1.30
2023-01-09T20:57:56.848Z,1.50
2023-01-09T21:00:27.380Z,1.48
2023-01-09T21:02:54.394Z,1.83
2023-01-09T21:05:21.082Z,1.20
2023-01-09T21:07:48.044Z,1.20
2023-01-09T21:10:14.831Z,1.20
2023-01-09T21:12:41.884Z,1.10
2023-01-09T21:15:10.333Z,1.30
2023-01-09T21:17:38.310Z,1.10
2023-01-09T21:20:11.749Z,1.23
2023-01-09T21:22:39.875Z,1.65
2023-01-09T21:25:07.739Z,1.25
2023-01-09T21:27:40.145Z,1.55
2023-01-09T21:30:08.490Z,1.38
2023-01-09T21:32:36.025Z,1.25
2023-01-09T21:35:06.094Z,1.30
2023-01-09T21:37:34.465Z,1.20
2023-01-09T21:40:01.506Z,1.20
2023-01-09T21:42:46.933Z,1.23
2023-01-09T21:45:33.066Z,1.05
2023-01-09T21:48:02.123Z,0.90
2023-01-09T21:50:28.872Z,1.17
2023-01-09T21:52:55.598Z,0.90
2023-01-09T21:55:22.248Z,1.30
2023-01-09T21:57:48.898Z,1.00
2023-01-09T22:00:16.149Z,1.20
2023-01-09T22:02:42.922Z,1.13
2023-01-09T22:05:10.413Z,1.05
2023-01-09T22:07:37.558Z,1.30
2023-01-09T22:10:04.967Z,0.90
2023-01-09T22:12:31.961Z,1.00
2023-01-09T22:14:58.942Z,0.95
2023-01-09T22:17:25.633Z,1.20
2023-01-09T22:19:52.312Z,0.95
2023-01-09T22:22:19.301Z,1.20
2023-01-09T22:24:46.314Z,1.02
2023-01-09T22:27:13.832Z,0.98
2023-01-09T22:29:41.752Z,1.15
2023-01-09T22:32:08.732Z,0.75
2023-01-09T22:34:35.721Z,1.00
2023-01-09T22:37:02.951Z,1.00
2023-01-09T22:39:29.663Z,0.88
2023-01-09T22:41:56.396Z,0.93
2023-01-09T22:44:23.120Z,0.80
2023-01-09T22:46:49.888Z,1.10
2023-01-09T22:49:16.689Z,0.77
2023-01-09T22:51:44.572Z,1.08
2023-01-09T22:54:11.281Z,0.77
2023-01-09T22:56:38.086Z,1.08
2023-01-09T22:59:04.819Z,0.73
2023-01-09T23:01:31.592Z,1.17
2023-01-09T23:03:58.351Z,1.02
2023-01-09T23:06:25.388Z,0.90
2023-01-09T23:08:52.797Z,0.80
2023-01-09T23:11:44.507Z,1.00
2023-01-09T23:14:11.592Z,0.82
2023-01-09T23:16:38.360Z,0.80
2023-01-09T23:19:09.789Z,1.10
2023-01-09T23:21:36.989Z,1.05
2023-01-09T23:24:04.056Z,0.90
2023-01-09T23:26:30.753Z,0.90
2023-01-09T23:28:57.475Z,1.00
2023-01-09T23:31:24.274Z,0.70
2023-01-09T23:33:51.017Z,0.90
2023-01-09T23:36:17.698Z,1.00
2023-01-09T23:38:45.286Z,0.80
2023-01-09T23:41:12.020Z,0.80
2023-01-09T23:43:38.702Z,0.90
2023-01-09T23:46:05.546Z,1.00
2023-01-09T23:48:32.252Z,0.95
2023-01-09T23:50:58.944Z,0.80
2023-01-09T23:53:25.643Z,0.82
2023-01-09T23:55:54.520Z,0.70
2023-01-09T23:58:21.615Z,0.93
